Time;durP1;ratioP1;P1;durP2;ratioP2;P2;SDS_P1;SDS_P2;PMS_P1;PMS_P2;Temp;Humidity;BMP_temperature;BMP_pressure;BME280_temperature;BME280_humidity;BME280_pressure;Samples;Min_cycle;Max_cycle;Signal;HPM_P1;HPM_P2
2022/03/06 00:00:08;;;;;;;18.38;8.90;;;;;;;-3.19;82.11;98814.78;5004751;28;20033;-65
2022/03/06 00:02:34;;;;;;;27.17;11.65;;;;;;;-3.24;81.81;98829.16;5004667;28;20206;-65
2022/03/06 00:04:59;;;;;;;26.35;14.10;;;;;;;-3.31;82.10;98827.19;5021321;28;20076;-65
2022/03/06 00:07:25;;;;;;;33.13;15.05;;;;;;;-3.30;82.00;98826.34;5027815;28;20034;-66
2022/03/06 00:09:50;;;;;;;22.02;9.93;;;;;;;-3.31;81.77;98822.03;5027800;28;20025;-66
2022/03/06 00:12:16;;;;;;;28.65;10.82;;;;;;;-3.28;82.49;98811.84;5027644;28;20336;-66
2022/03/06 00:14:41;;;;;;;37.13;8.48;;;;;;;-3.25;81.84;98817.13;5027522;28;20057;-66
2022/03/06 00:17:06;;;;;;;19.38;7.80;;;;;;;-3.27;81.63;98808.44;5027735;28;20022;-66
2022/03/06 00:19:32;;;;;;;8.35;5.97;;;;;;;-3.34;81.47;98816.78;5027717;28;20086;-66
2022/03/06 00:21:57;;;;;;;13.32;6.22;;;;;;;-3.28;81.29;98806.72;5027501;28;20037;-66
2022/03/06 00:24:23;;;;;;;15.13;6.15;;;;;;;-3.35;81.24;98815.03;5027503;28;20360;-66
2022/03/06 00:26:48;;;;;;;9.90;5.05;;;;;;;-3.39;81.43;98818.31;5027441;28;20029;-66
2022/03/06 00:29:14;;;;;;;11.23;4.72;;;;;;;-3.41;81.11;98815.69;5014815;28;20026;-66
2022/03/06 00:31:39;;;;;;;8.90;4.28;;;;;;;-3.38;81.45;98820.06;5007806;28;20221;-66
2022/03/06 00:34:05;;;;;;;7.53;4.70;;;;;;;-3.49;81.37;98811.94;5007640;28;20213;-66
2022/03/06 00:36:31;;;;;;;11.95;5.90;;;;;;;-3.55;81.02;98821.13;5020714;28;20030;-66
2022/03/06 00:38:56;;;;;;;10.43;6.32;;;;;;;-3.50;82.12;98814.44;5027316;28;20379;-66
2022/03/06 00:41:23;;;;;;;8.52;5.03;;;;;;;-3.50;81.59;98820.47;5027154;28;20021;-66
2022/03/06 00:43:49;;;;;;;10.25;4.22;;;;;;;-3.57;81.78;98817.59;5027501;28;20321;-66
2022/03/06 00:46:14;;;;;;;7.68;4.00;;;;;;;-3.56;81.24;98819.34;5027004;28;20028;-66
2022/03/06 00:48:40;;;;;;;12.27;5.20;;;;;;;-3.53;81.03;98819.47;5027090;28;20033;-66
2022/03/06 00:51:06;;;;;;;20.40;6.80;;;;;;;-3.55;81.27;98823.69;5027009;28;20052;-66
2022/03/06 00:53:31;;;;;;;10.35;6.05;;;;;;;-3.58;81.18;98816.72;5027071;28;20033;-66
2022/03/06 00:55:56;;;;;;;10.02;4.68;;;;;;;-3.62;82.21;98824.25;5026954;28;20087;-66
2022/03/06 00:58:22;;;;;;;9.57;3.65;;;;;;;-3.59;81.82;98824.38;5027014;28;20060;-66
2022/03/06 01:00:48;;;;;;;10.57;5.10;;;;;;;-3.56;81.90;98825.38;5027007;28;20018;-66
2022/03/06 01:03:19;;;;;;;10.98;4.50;;;;;;;-3.57;82.51;98833.94;5026965;28;20029;-66
2022/03/06 01:05:45;;;;;;;8.93;3.90;;;;;;;-3.57;82.57;98820.19;5027014;28;20056;-66
2022/03/06 01:08:11;;;;;;;11.40;4.88;;;;;;;-3.54;82.11;98817.72;5027118;28;20022;-66
2022/03/06 01:10:38;;;;;;;9.68;4.07;;;;;;;-3.51;82.02;98822.97;5016375;28;20030;-66
2022/03/06 01:13:06;;;;;;;9.70;5.03;;;;;;;-3.72;81.69;98824.72;5007001;28;20081;-66
2022/03/06 01:15:32;;;;;;;8.20;3.97;;;;;;;-3.70;82.66;98825.66;5007092;28;20026;-66
2022/03/06 01:17:58;;;;;;;12.35;5.80;;;;;;;-3.61;83.07;98826.03;5006104;28;20037;-66
2022/03/06 01:20:24;;;;;;;10.18;5.15;;;;;;;-3.63;82.30;98822.50;5006822;28;20064;-66
2022/03/06 01:22:51;;;;;;;9.70;5.38;;;;;;;-3.67;82.53;98825.78;5006945;28;20014;-66
2022/03/06 01:25:16;;;;;;;10.75;4.55;;;;;;;-3.63;82.52;98828.53;5006729;28;20080;-66
2022/03/06 01:27:42;;;;;;;15.55;6.82;;;;;;;-3.65;82.41;98829.28;5006862;28;20317;-66
2022/03/06 01:30:09;;;;;;;23.02;11.35;;;;;;;-3.67;83.41;98820.66;5006795;28;20037;-66
2022/03/06 01:32:35;;;;;;;25.50;12.05;;;;;;;-3.65;83.94;98819.88;5006619;28;20022;-66
2022/03/06 01:35:01;;;;;;;34.72;13.27;;;;;;;-3.68;83.71;98824.00;5006772;28;20058;-66
2022/03/06 01:37:27;;;;;;;32.40;12.98;;;;;;;-3.73;83.93;98820.41;5006450;28;20026;-66
2022/03/06 01:39:52;;;;;;;34.58;15.60;;;;;;;-3.73;84.33;98825.53;5006548;28;20030;-66
2022/03/06 01:42:18;;;;;;;42.15;18.98;;;;;;;-3.72;84.32;98820.47;5006426;28;20333;-66
2022/03/06 01:44:45;;;;;;;26.27;15.43;;;;;;;-3.73;84.33;98823.88;5013471;28;20018;-66
2022/03/06 01:47:10;;;;;;;23.35;8.95;;;;;;;-3.77;83.82;98814.25;5026107;28;20026;-66
2022/03/06 01:49:36;;;;;;;26.20;11.18;;;;;;;-3.76;83.62;98817.72;5026057;28;20089;-66
2022/03/06 01:52:01;;;;;;;33.13;13.65;;;;;;;-3.90;83.69;98816.31;5025948;28;20380;-66
2022/03/06 01:54:27;;;;;;;25.08;12.65;;;;;;;-3.92;84.58;98815.34;5026037;28;20216;-65
2022/03/06 01:56:52;;;;;;;30.10;12.88;;;;;;;-3.99;85.56;98806.50;5025982;28;20022;-65
2022/03/06 01:59:18;;;;;;;33.33;14.20;;;;;;;-3.94;85.74;98815.31;5025400;28;20022;-65
2022/03/06 02:01:43;;;;;;;22.92;11.15;;;;;;;-3.96;84.71;98816.06;5025994;28;20025;-65
2022/03/06 02:04:09;;;;;;;26.25;9.82;;;;;;;-4.16;85.01;98812.69;5026046;28;20041;-65
2022/03/06 02:06:36;;;;;;;27.65;10.73;;;;;;;-4.06;85.92;98816.47;5025857;28;20062;-65
2022/03/06 02:09:02;;;;;;;20.13;9.38;;;;;;;-4.02;85.49;98820.97;5026145;28;20025;-65
2022/03/06 02:11:28;;;;;;;27.20;10.82;;;;;;;-4.16;85.08;98816.94;5025694;28;20306;-65
2022/03/06 02:13:55;;;;;;;16.50;8.10;;;;;;;-4.12;85.13;98808.56;5014878;28;20041;-65
2022/03/06 02:16:21;;;;;;;25.13;11.23;;;;;;;-4.16;85.73;98816.94;5006010;28;20032;-65
2022/03/06 02:18:46;;;;;;;29.33;11.65;;;;;;;-4.21;85.81;98816.75;5009427;28;20045;-65
2022/03/06 02:21:13;;;;;;;22.00;10.65;;;;;;;-4.13;85.48;98819.63;5025699;28;20041;-65
2022/03/06 02:23:39;;;;;;;26.05;10.07;;;;;;;-4.12;84.74;98817.13;5025344;28;20053;-65
2022/03/06 02:26:07;;;;;;;18.30;8.98;;;;;;;-4.21;85.23;98813.31;5025662;28;20026;-65
2022/03/06 02:28:33;;;;;;;20.08;11.05;;;;;;;-4.22;84.99;98819.25;5025329;28;20242;-65
2022/03/06 02:30:59;;;;;;;32.85;12.50;;;;;;;-4.24;85.09;98813.19;5025397;28;20022;-65
2022/03/06 02:33:25;;;;;;;30.38;13.38;;;;;;;-4.17;85.31;98820.34;5025343;28;20333;-65
2022/03/06 02:35:50;;;;;;;30.75;12.90;;;;;;;-4.27;85.26;98815.63;5025435;28;20052;-65
2022/03/06 02:38:16;;;;;;;29.33;14.93;;;;;;;-4.24;84.74;98818.34;5025316;28;20017;-65
2022/03/06 02:40:43;;;;;;;28.33;12.95;;;;;;;-4.23;85.91;98809.81;5025420;28;20018;-65
2022/03/06 02:43:10;;;;;;;21.73;11.15;;;;;;;-4.34;85.56;98816.22;5014992;28;20289;-65
2022/03/06 02:45:39;;;;;;;22.73;10.30;;;;;;;-4.39;86.05;98807.41;5005599;28;20026;-65
2022/03/06 02:48:05;;;;;;;25.73;13.00;;;;;;;-4.36;86.69;98815.25;5005704;28;20096;-65
2022/03/06 02:50:34;;;;;;;28.38;11.73;;;;;;;-4.40;86.62;98815.94;5005445;28;20169;-65
2022/03/06 02:53:03;;;;;;;28.40;12.63;;;;;;;-4.43;86.10;98810.69;5013295;28;20026;-65
2022/03/06 02:55:29;;;;;;;21.33;11.07;;;;;;;-4.39;86.02;98817.69;5023141;28;20026;-65
2022/03/06 02:57:54;;;;;;;18.55;9.70;;;;;;;-4.39;86.45;98820.25;5024839;28;20041;-65
2022/03/06 03:00:21;;;;;;;28.80;11.93;;;;;;;-4.35;85.76;98825.59;5025307;28;20029;-65
2022/03/06 03:02:48;;;;;;;24.63;10.90;;;;;;;-4.44;86.03;98819.22;5023349;28;20022;-65
2022/03/06 03:05:15;;;;;;;23.60;10.48;;;;;;;-4.49;86.28;98819.88;5005531;28;20026;-65
2022/03/06 03:07:42;;;;;;;26.83;12.43;;;;;;;-4.55;85.96;98817.06;5005352;28;20026;-65
2022/03/06 03:10:10;;;;;;;13.52;7.85;;;;;;;-4.60;86.40;98813.44;5005473;28;20317;-65
2022/03/06 03:12:36;;;;;;;15.10;6.88;;;;;;;-4.66;85.63;98813.16;5005111;28;20101;-65
2022/03/06 03:15:04;;;;;;;21.27;9.07;;;;;;;-4.63;86.35;98817.56;5005073;28;20104;-65
2022/03/06 03:17:29;;;;;;;19.73;9.13;;;;;;;-4.65;87.07;98817.47;5005658;28;20026;-65
2022/03/06 03:19:55;;;;;;;14.18;7.28;;;;;;;-4.63;87.06;98820.13;5005554;28;20046;-65
2022/03/06 03:22:20;;;;;;;17.55;7.68;;;;;;;-4.55;86.69;98818.75;5005609;28;20429;-65
2022/03/06 03:24:46;;;;;;;21.33;7.85;;;;;;;-4.47;86.85;98819.09;5005369;28;20026;-65
2022/03/06 03:27:11;;;;;;;17.38;6.57;;;;;;;-4.60;85.57;98818.56;5010880;28;20085;-65
2022/03/06 03:29:37;;;;;;;17.08;7.95;;;;;;;-4.66;85.88;98818.31;5025082;28;20026;-65
2022/03/06 03:32:02;;;;;;;17.02;7.35;;;;;;;-4.58;86.09;98826.34;5019871;28;20015;-65
2022/03/06 03:34:28;;;;;;;16.27;7.47;;;;;;;-4.66;86.77;98823.44;5005357;28;20401;-65
2022/03/06 03:36:53;;;;;;;22.52;8.45;;;;;;;-4.68;86.85;98830.19;5005252;28;20026;-65
2022/03/06 03:39:19;;;;;;;11.13;6.75;;;;;;;-4.65;86.67;98830.31;5005368;28;20026;-65
2022/03/06 03:41:44;;;;;;;13.07;7.07;;;;;;;-4.63;86.51;98831.28;5008911;28;20025;-65
2022/03/06 03:44:10;;;;;;;11.15;5.38;;;;;;;-4.64;86.42;98832.09;5008269;28;20065;-65
2022/03/06 03:46:35;;;;;;;17.67;6.85;;;;;;;-4.61;86.54;98832.22;5007912;28;20045;-65
2022/03/06 03:49:01;;;;;;;19.00;6.90;;;;;;;-4.60;86.78;98838.22;5007760;28;20029;-65
2022/03/06 03:51:26;;;;;;;10.77;5.65;;;;;;;-4.61;86.25;98834.81;5007663;28;20026;-65
2022/03/06 03:53:51;;;;;;;9.52;4.90;;;;;;;-4.70;86.23;98836.97;5007726;28;20320;-65
2022/03/06 03:56:17;;;;;;;16.88;6.68;;;;;;;-4.75;86.00;98848.72;5007640;28;20317;-65
2022/03/06 03:58:42;;;;;;;8.18;5.57;;;;;;;-4.71;86.86;98845.47;5007580;28;20088;-65
2022/03/06 04:01:08;;;;;;;19.80;7.03;;;;;;;-4.73;87.38;98859.94;5008742;28;20068;-65
2022/03/06 04:03:33;;;;;;;15.75;7.10;;;;;;;-4.77;87.19;98860.59;5027147;28;20022;-65
2022/03/06 04:05:58;;;;;;;12.65;6.68;;;;;;;-4.68;87.70;98861.00;5027069;28;20216;-65
2022/03/06 04:08:24;;;;;;;15.13;5.95;;;;;;;-4.66;87.21;98858.50;5027019;28;20220;-65
2022/03/06 04:10:50;;;;;;;10.63;6.47;;;;;;;-4.65;87.52;98861.13;5027050;28;20050;-65
2022/03/06 04:13:16;;;;;;;15.20;5.50;;;;;;;-4.64;88.20;98862.91;5026758;28;20041;-65
2022/03/06 04:15:41;;;;;;;11.90;5.78;;;;;;;-4.56;87.41;98866.66;5027013;28;20112;-65
2022/03/06 04:18:07;;;;;;;9.90;5.53;;;;;;;-4.67;88.12;98864.47;5026881;28;20036;-65
2022/03/06 04:20:32;;;;;;;12.18;5.50;;;;;;;-4.60;87.28;98867.34;5026758;28;20029;-65
2022/03/06 04:22:58;;;;;;;10.63;4.68;;;;;;;-4.72;88.12;98873.63;5027006;28;20036;-65
2022/03/06 04:25:24;;;;;;;15.50;7.05;;;;;;;-4.60;87.88;98869.94;5009190;28;20017;-65
2022/03/06 04:27:50;;;;;;;11.60;5.97;;;;;;;-4.62;87.46;98865.56;5026650;28;20026;-65
2022/03/06 04:30:15;;;;;;;14.18;6.15;;;;;;;-4.63;87.56;98874.94;5026686;28;20097;-65
2022/03/06 04:32:41;;;;;;;8.55;4.38;;;;;;;-4.64;87.10;98882.56;5026256;28;20217;-65
2022/03/06 04:35:06;;;;;;;10.65;4.68;;;;;;;-4.61;87.23;98873.31;5026593;28;20096;-65
2022/03/06 04:37:32;;;;;;;10.50;3.50;;;;;;;-4.49;87.03;98889.22;5009353;28;20052;-65
2022/03/06 04:39:58;;;;;;;11.57;5.63;;;;;;;-4.54;86.79;98869.31;5006845;28;20345;-65
2022/03/06 04:42:23;;;;;;;13.27;4.88;;;;;;;-4.50;87.21;98876.31;5016567;28;20029;-65
2022/03/06 04:44:49;;;;;;;10.27;4.50;;;;;;;-4.43;87.29;98883.50;5026061;28;20033;-65
2022/03/06 04:47:14;;;;;;;6.50;3.85;;;;;;;-4.54;86.74;98877.91;5026302;28;20028;-65
2022/03/06 04:49:40;;;;;;;6.28;4.03;;;;;;;-4.47;87.08;98889.28;5026258;28;20026;-65
2022/03/06 04:52:06;;;;;;;5.55;3.22;;;;;;;-4.50;86.69;98890.03;5025907;28;20026;-65
2022/03/06 04:54:31;;;;;;;8.35;4.28;;;;;;;-4.39;86.71;98890.50;5026162;28;20030;-65
2022/03/06 04:56:57;;;;;;;5.90;3.22;;;;;;;-4.42;86.45;98885.25;5026145;28;20217;-65
2022/03/06 04:59:23;;;;;;;10.23;5.15;;;;;;;-4.35;86.55;98896.63;5026028;28;20029;-65
2022/03/06 05:01:48;;;;;;;8.48;4.40;;;;;;;-4.31;86.77;98893.41;5026002;28;20022;-65
2022/03/06 05:04:14;;;;;;;7.95;4.25;;;;;;;-4.36;86.81;98889.75;5025979;28;20029;-65
2022/03/06 05:06:39;;;;;;;12.60;4.68;;;;;;;-4.29;87.02;98891.75;5025928;28;20021;-65
2022/03/06 05:09:04;;;;;;;8.40;4.65;;;;;;;-4.23;86.93;98881.75;5025930;28;20021;-66
2022/03/06 05:11:30;;;;;;;7.72;4.88;;;;;;;-4.24;86.88;98892.84;5012879;28;20022;-66
2022/03/06 05:13:55;;;;;;;12.38;5.53;;;;;;;-4.28;86.33;98888.41;5006050;28;20126;-66
2022/03/06 05:16:21;;;;;;;10.60;5.50;;;;;;;-4.27;86.19;98895.28;5006140;28;20100;-66
2022/03/06 05:18:47;;;;;;;7.85;4.35;;;;;;;-4.31;85.69;98889.13;5006130;28;20267;-66
2022/03/06 05:21:12;;;;;;;10.40;4.97;;;;;;;-4.30;86.10;98887.44;5006082;28;20046;-65
2022/03/06 05:23:38;;;;;;;9.98;5.22;;;;;;;-4.27;85.88;98895.28;5006053;28;20049;-65
2022/03/06 05:26:03;;;;;;;7.68;3.72;;;;;;;-4.27;86.67;98895.28;5006037;28;20092;-65
2022/03/06 05:28:28;;;;;;;15.13;5.82;;;;;;;-4.16;86.87;98900.06;5005901;28;20098;-65
2022/03/06 05:30:54;;;;;;;8.00;3.08;;;;;;;-4.15;85.72;98893.25;5005834;28;20022;-65
2022/03/06 05:33:20;;;;;;;15.77;4.97;;;;;;;-4.14;86.49;98897.56;5023478;28;20026;-65
2022/03/06 05:35:46;;;;;;;14.80;5.57;;;;;;;-4.17;86.70;98897.41;5025402;28;20022;-65
2022/03/06 05:38:12;;;;;;;7.97;5.50;;;;;;;-4.16;87.12;98904.31;5025360;28;20032;-66
2022/03/06 05:40:37;;;;;;;12.02;5.75;;;;;;;-4.06;86.66;98906.44;5025316;28;20049;-66
2022/03/06 05:43:03;;;;;;;9.32;5.22;;;;;;;-4.07;86.49;98904.69;5025245;28;20030;-66
2022/03/06 05:45:28;;;;;;;9.85;4.15;;;;;;;-4.17;86.72;98902.56;5025236;28;20060;-66
2022/03/06 05:47:54;;;;;;;17.98;6.60;;;;;;;-4.08;86.57;98913.22;5015583;28;20026;-66
2022/03/06 05:50:19;;;;;;;13.13;5.43;;;;;;;-3.97;86.86;98922.25;5005514;28;20026;-65
2022/03/06 05:52:45;;;;;;;18.00;6.63;;;;;;;-3.94;86.37;98917.25;5005385;28;20321;-65
2022/03/06 05:55:10;;;;;;;17.08;6.32;;;;;;;-3.87;86.58;98919.25;5005399;28;20085;-65
2022/03/06 05:57:36;;;;;;;16.88;7.93;;;;;;;-3.86;86.41;98926.16;5011833;28;20044;-65
2022/03/06 06:00:08;;;;;;;22.88;12.15;;;;;;;-3.87;86.24;98920.13;5025192;28;20022;-65
2022/03/06 06:02:37;;;;;;;18.45;8.18;;;;;;;-3.82;86.83;98922.88;5024337;28;20025;-65
2022/03/06 06:05:06;;;;;;;18.30;8.02;;;;;;;-3.80;87.03;98922.13;5024879;28;20029;-65
2022/03/06 06:07:33;;;;;;;13.02;7.53;;;;;;;-3.74;86.93;98926.66;5018815;28;20109;-65
2022/03/06 06:09:58;;;;;;;20.25;7.65;;;;;;;-3.66;86.87;98927.84;5005105;28;20022;-66
2022/03/06 06:12:24;;;;;;;14.23;7.18;;;;;;;-3.53;86.13;98932.66;5005031;28;20257;-66
2022/03/06 06:14:49;;;;;;;13.15;7.70;;;;;;;-3.51;85.72;98926.75;5003782;28;20245;-66
2022/03/06 06:17:15;;;;;;;16.08;7.22;;;;;;;-3.46;85.75;98929.50;5007164;28;20238;-66
2022/03/06 06:19:40;;;;;;;24.48;8.40;;;;;;;-3.51;85.94;98931.03;5023683;28;20056;-66
2022/03/06 06:22:06;;;;;;;10.57;6.22;;;;;;;-3.39;86.16;98931.53;5023420;28;20045;-66
2022/03/06 06:24:31;;;;;;;12.25;6.78;;;;;;;-3.42;86.50;98931.41;5013266;28;20272;-66
2022/03/06 06:26:56;;;;;;;10.55;5.50;;;;;;;-3.52;85.75;98929.25;5004156;28;20090;-66
2022/03/06 06:29:23;;;;;;;8.35;4.55;;;;;;;-3.43;85.86;98930.50;5021454;28;20379;-66
2022/03/06 06:31:49;;;;;;;7.40;5.32;;;;;;;-3.24;85.84;98937.25;5010748;28;20022;-66
2022/03/06 06:34:15;;;;;;;7.75;5.32;;;;;;;-3.10;85.43;98936.94;5016464;28;20104;-66
2022/03/06 06:36:41;;;;;;;11.05;6.50;;;;;;;-3.19;85.35;98943.47;5010826;28;20025;-66
2022/03/06 06:39:09;;;;;;;10.27;6.47;;;;;;;-3.12;85.24;98942.88;5003538;28;20098;-66
2022/03/06 06:41:36;;;;;;;10.23;4.30;;;;;;;-2.85;85.22;98944.78;5004840;28;20018;-66
2022/03/06 06:44:02;;;;;;;13.60;5.45;;;;;;;-2.70;84.30;98954.78;5004305;28;20092;-66
2022/03/06 06:46:27;;;;;;;12.23;5.63;;;;;;;-2.56;83.84;98959.63;5023117;28;20022;-66
2022/03/06 06:48:52;;;;;;;13.18;6.00;;;;;;;-2.00;82.86;98959.06;5023328;28;20077;-66
2022/03/06 06:51:18;;;;;;;8.57;3.78;;;;;;;-1.89;81.86;98955.16;5022920;28;21503;-66
2022/03/06 06:53:44;;;;;;;13.10;5.38;;;;;;;-1.67;81.49;98965.38;5022309;28;20050;-66
2022/03/06 06:56:09;;;;;;;8.52;5.20;;;;;;;-1.41;81.01;98964.53;5005395;28;20278;-66
2022/03/06 06:58:34;;;;;;;14.40;6.68;;;;;;;-1.41;80.18;98964.53;5007091;28;20072;-66
2022/03/06 07:01:00;;;;;;;11.77;5.97;;;;;;;-1.35;79.13;98958.69;5014494;28;20029;-66
2022/03/06 07:03:25;;;;;;;20.83;7.47;;;;;;;-1.38;78.89;98954.31;5006176;28;20341;-66
2022/03/06 07:05:51;;;;;;;16.02;6.97;;;;;;;-0.94;79.42;98958.28;5008745;28;20202;-66
2022/03/06 07:08:16;;;;;;;25.75;9.90;;;;;;;-0.35;76.49;98961.78;5019423;28;20060;-66
2022/03/06 07:10:42;;;;;;;21.73;9.52;;;;;;;-0.45;75.91;98961.47;5022900;28;20144;-66
2022/03/06 07:13:07;;;;;;;17.88;7.10;;;;;;;-0.27;76.46;98957.69;5004878;28;20036;-66
2022/03/06 07:15:33;;;;;;;20.80;9.07;;;;;;;-0.11;75.54;98967.63;5007016;28;20026;-66
2022/03/06 07:18:00;;;;;;;31.58;11.48;;;;;;;-0.28;75.65;98961.09;5007351;28;20063;-66
2022/03/06 07:20:27;;;;;;;20.15;9.15;;;;;;;-0.42;76.60;98966.72;5006967;28;20242;-66
2022/03/06 07:22:53;;;;;;;21.15;9.55;;;;;;;-0.46;76.62;98965.78;5007562;28;20336;-66
2022/03/06 07:25:19;;;;;;;22.50;9.80;;;;;;;-0.86;78.42;98965.41;5007186;28;20030;-66
2022/03/06 07:27:45;;;;;;;20.77;10.10;;;;;;;-0.90;79.03;98961.00;5007263;28;20112;-66
2022/03/06 07:30:11;;;;;;;26.48;8.63;;;;;;;-0.85;79.17;98974.06;5007191;28;20317;-65
2022/03/06 07:32:48;;;;;;;15.32;6.82;;;;;;;-0.75;78.87;98966.63;5007147;28;20018;-65
2022/03/06 07:35:15;;;;;;;16.65;6.57;;;;;;;-0.83;79.10;98962.03;5007365;28;20137;-65
2022/03/06 07:37:41;;;;;;;21.42;8.98;;;;;;;-0.89;79.41;98967.06;5021695;28;20025;-65
2022/03/06 07:40:08;;;;;;;22.10;8.75;;;;;;;-0.73;80.06;98970.13;5009647;28;20027;-65
2022/03/06 07:42:34;;;;;;;21.50;8.18;;;;;;;-0.58;80.14;98970.59;5008413;28;20097;-65
2022/03/06 07:45:00;;;;;;;15.98;8.32;;;;;;;0.19;79.30;98972.72;5017721;28;20081;-65
2022/03/06 07:47:26;;;;;;;27.30;12.02;;;;;;;0.19;77.46;98977.06;5022687;28;20025;-65
2022/03/06 07:49:51;;;;;;;21.38;9.02;;;;;;;0.40;78.88;98981.06;5007723;28;20022;-66
2022/03/06 07:52:17;;;;;;;28.38;11.70;;;;;;;0.48;77.95;98973.50;5007767;28;20050;-66
2022/03/06 07:54:42;;;;;;;101.72;34.53;;;;;;;0.42;77.66;98973.34;5007715;28;20022;-66
2022/03/06 07:57:08;;;;;;;114.15;39.35;;;;;;;0.32;78.93;98968.78;5022064;28;20317;-66
2022/03/06 07:59:35;;;;;;;110.80;40.15;;;;;;;0.20;80.17;98965.84;5007618;28;20089;-66
2022/03/06 08:02:00;;;;;;;109.97;41.15;;;;;;;0.40;79.16;98970.72;5007561;28;20094;-66
2022/03/06 08:04:26;;;;;;;81.90;32.83;;;;;;;0.33;79.37;98973.09;5016625;28;20026;-66
2022/03/06 08:06:52;;;;;;;72.90;28.60;;;;;;;0.54;79.39;98977.09;5025213;28;20056;-66
2022/03/06 08:09:17;;;;;;;55.47;22.25;;;;;;;0.76;79.36;98981.13;5026457;28;20022;-66
2022/03/06 08:11:43;;;;;;;73.40;30.10;;;;;;;0.99;79.50;98985.13;5026041;28;20037;-66
2022/03/06 08:14:08;;;;;;;80.28;32.10;;;;;;;1.25;79.50;98984.00;5007589;28;20041;-66
2022/03/06 08:16:33;;;;;;;55.03;24.27;;;;;;;2.33;75.70;98978.47;5008407;28;20025;-66
2022/03/06 08:18:59;;;;;;;50.53;19.23;;;;;;;3.91;72.43;98991.34;5008374;28;20041;-66
2022/03/06 08:21:24;;;;;;;28.30;13.35;;;;;;;5.36;63.84;98996.25;5022780;28;20080;-66
2022/03/06 08:23:51;;;;;;;23.50;8.88;;;;;;;6.55;58.80;98990.72;5026266;28;20029;-66
2022/03/06 08:26:17;;;;;;;20.17;8.82;;;;;;;6.79;54.40;98987.28;5025576;28;20071;-66
2022/03/06 08:28:42;;;;;;;16.08;6.78;;;;;;;6.93;55.40;98985.53;5010570;28;20072;-66
2022/03/06 08:31:09;;;;;;;20.33;7.97;;;;;;;7.25;52.01;98977.69;5007003;28;20026;-66
2022/03/06 08:33:34;;;;;;;16.35;6.82;;;;;;;7.99;49.12;98981.88;5006981;28;20025;-66
2022/03/06 08:35:59;;;;;;;13.73;6.95;;;;;;;8.51;47.89;98983.41;5019259;28;20217;-66
2022/03/06 08:38:25;;;;;;;17.67;7.30;;;;;;;8.66;48.33;98972.84;5025805;28;20072;-66
2022/03/06 08:40:50;;;;;;;15.40;7.70;;;;;;;8.49;48.44;98969.41;5025719;28;20021;-66
2022/03/06 08:43:16;;;;;;;21.35;9.27;;;;;;;7.59;50.64;98968.91;5025912;28;20017;-66
2022/03/06 08:45:41;;;;;;;26.02;9.63;;;;;;;8.47;49.52;98955.47;5025034;28;20022;-67
2022/03/06 08:48:07;;;;;;;25.00;9.75;;;;;;;9.10;48.60;98945.38;5025936;28;20321;-67
2022/03/06 08:50:32;;;;;;;23.58;10.05;;;;;;;9.81;46.44;98951.66;5026583;28;20320;-66
2022/03/06 08:52:57;;;;;;;25.83;10.85;;;;;;;9.57;45.32;98940.53;5026257;28;20070;-67
2022/03/06 08:55:23;;;;;;;24.23;10.30;;;;;;;9.45;44.32;98961.66;5023983;28;20029;-67
2022/03/06 08:57:48;;;;;;;26.42;10.80;;;;;;;9.22;43.21;98954.03;5026251;28;20264;-67
2022/03/06 09:00:14;;;;;;;22.13;9.68;;;;;;;9.24;43.69;98957.50;5025572;28;20022;-67
2022/03/06 09:02:39;;;;;;;26.45;11.55;;;;;;;9.16;45.67;98948.81;5026049;28;20309;-67
2022/03/06 09:05:05;;;;;;;25.05;10.25;;;;;;;9.92;43.14;98938.38;5009560;28;20029;-67
2022/03/06 09:07:31;;;;;;;29.05;12.35;;;;;;;10.35;42.73;98923.84;5001376;28;20209;-67
2022/03/06 09:09:56;;;;;;;25.77;10.88;;;;;;;9.80;42.07;98925.38;5016920;28;20030;-67
2022/03/06 09:12:22;;;;;;;25.77;11.23;;;;;;;9.82;43.13;98920.97;5006242;28;20097;-67
2022/03/06 09:14:47;;;;;;;23.75;10.38;;;;;;;9.78;43.28;98922.75;5015896;28;20049;-67
2022/03/06 09:17:13;;;;;;;21.70;9.60;;;;;;;9.96;41.39;98914.66;5025455;28;20037;-67
2022/03/06 09:19:38;;;;;;;24.52;10.70;;;;;;;9.26;43.81;98913.72;5025206;28;20053;-67
2022/03/06 09:22:04;;;;;;;26.85;10.60;;;;;;;9.63;41.69;98877.41;5025123;28;20373;-67
2022/03/06 09:24:31;;;;;;;21.55;10.75;;;;;;;9.00;42.52;98883.31;5025673;28;20026;-67
2022/03/06 09:26:57;;;;;;;20.00;10.23;;;;;;;8.60;43.74;98878.41;5025599;28;20419;-66
2022/03/06 09:29:22;;;;;;;28.08;10.65;;;;;;;10.04;42.17;98885.66;5025544;28;20025;-66
2022/03/06 09:31:48;;;;;;;23.30;10.65;;;;;;;9.40;41.51;98879.44;5025398;28;20029;-66
2022/03/06 09:34:13;;;;;;;23.33;9.48;;;;;;;9.01;42.85;98871.97;5025487;28;20099;-66
2022/03/06 09:36:39;;;;;;;23.40;10.32;;;;;;;9.33;42.65;98875.13;5025323;28;20056;-66
2022/03/06 09:39:05;;;;;;;29.10;9.60;;;;;;;9.33;41.89;98862.84;5024565;28;20030;-66
2022/03/06 09:41:31;;;;;;;22.40;10.00;;;;;;;8.94;42.45;98873.75;5025566;28;20362;-66
2022/03/06 09:43:57;;;;;;;22.40;10.93;;;;;;;8.82;42.28;98864.25;5025302;28;20349;-66
2022/03/06 09:46:24;;;;;;;27.95;9.75;;;;;;;8.78;42.02;98867.78;5025478;28;20026;-66
2022/03/06 09:48:50;;;;;;;28.17;10.52;;;;;;;8.66;41.29;98860.00;5025228;28;20096;-66
2022/03/06 09:51:16;;;;;;;23.13;10.35;;;;;;;9.26;41.77;98876.06;5025301;28;20026;-66
2022/03/06 09:53:42;;;;;;;22.67;10.25;;;;;;;9.21;41.73;98872.63;5025160;28;20049;-66
2022/03/06 09:56:07;;;;;;;22.23;9.73;;;;;;;9.37;40.91;98867.22;5025069;28;20068;-66
2022/03/06 09:58:33;;;;;;;26.63;10.38;;;;;;;8.47;41.58;98887.25;5025046;28;20032;-66
2022/03/06 10:00:58;;;;;;;29.92;11.88;;;;;;;7.95;41.75;98883.19;5024986;28;20347;-66
2022/03/06 10:03:24;;;;;;;23.08;9.43;;;;;;;7.52;42.81;98879.00;5024943;28;20029;-66
2022/03/06 10:05:50;;;;;;;25.63;9.52;;;;;;;9.00;41.48;98893.81;5024941;28;20033;-66
2022/03/06 10:08:16;;;;;;;18.83;8.48;;;;;;;8.85;39.69;98878.22;5024946;28;20025;-66
2022/03/06 10:10:42;;;;;;;29.45;9.75;;;;;;;8.23;40.75;98874.31;5024971;28;20037;-66
2022/03/06 10:13:17;;;;;;;21.38;9.45;;;;;;;8.09;41.00;98883.97;5024769;28;20026;-66
2022/03/06 10:16:09;;;;;;;19.98;9.35;;;;;;;7.92;41.64;98891.06;5024782;28;20096;-66
2022/03/06 10:18:40;;;;;;;32.67;9.38;;;;;;;8.72;39.99;98872.19;5024697;28;20025;-66
2022/03/06 10:21:09;;;;;;;26.35;9.15;;;;;;;8.73;39.49;98895.81;5024765;28;20091;-66
2022/03/06 10:23:35;;;;;;;21.52;7.55;;;;;;;8.42;37.74;98886.41;5024589;28;20029;-66
2022/03/06 10:26:28;;;;;;;19.30;8.13;;;;;;;6.80;41.46;98889.59;5024576;28;20061;-66
2022/03/06 10:29:09;;;;;;;23.25;9.85;;;;;;;6.23;42.30;98915.69;5021311;28;20383;-66
2022/03/06 10:31:35;;;;;;;19.43;7.90;;;;;;;5.95;42.92;98913.91;5024446;28;20021;-66
2022/03/06 10:34:12;;;;;;;20.00;8.10;;;;;;;5.40;43.00;98922.31;5024449;28;20037;-66
2022/03/06 10:36:45;;;;;;;20.55;8.57;;;;;;;5.92;43.84;98929.56;5024455;28;20076;-66
2022/03/06 10:39:15;;;;;;;26.40;8.27;;;;;;;6.83;42.18;98917.53;5024605;28;20064;-66
2022/03/06 10:41:42;;;;;;;25.15;9.15;;;;;;;7.36;40.45;98913.97;5024611;28;20049;-66
2022/03/06 10:44:10;;;;;;;21.77;7.55;;;;;;;6.72;40.31;98926.22;5024294;28;20032;-66
2022/03/06 10:46:37;;;;;;;17.90;7.68;;;;;;;6.92;39.77;98928.84;5024286;28;20321;-66
2022/03/06 10:49:13;;;;;;;22.25;9.13;;;;;;;6.94;40.20;98919.25;5023971;28;20026;-66
2022/03/06 10:51:47;;;;;;;18.38;7.40;;;;;;;7.78;40.13;98908.59;5024110;28;20026;-66
2022/03/06 10:54:14;;;;;;;16.60;7.82;;;;;;;7.96;38.37;98903.28;5024146;28;20037;-66
2022/03/06 10:56:43;;;;;;;18.08;8.13;;;;;;;8.16;38.47;98905.78;5024424;28;20022;-66
2022/03/06 10:59:09;;;;;;;16.33;7.28;;;;;;;8.52;37.79;98905.59;5024371;28;20026;-66
2022/03/06 11:01:35;;;;;;;15.15;7.13;;;;;;;8.03;38.99;98894.50;5024090;28;20029;-66
2022/03/06 11:04:06;;;;;;;20.38;7.85;;;;;;;8.39;39.06;98902.16;5024097;28;20084;-66
2022/03/06 11:06:40;;;;;;;18.73;8.77;;;;;;;7.25;38.81;98889.56;5024103;28;20021;-66
2022/03/06 11:09:10;;;;;;;17.70;7.75;;;;;;;8.00;39.61;98899.75;5024141;28;20064;-66
2022/03/06 11:11:38;;;;;;;18.88;8.25;;;;;;;8.27;39.17;98912.75;5024314;28;20021;-66
2022/03/06 11:14:04;;;;;;;16.98;7.47;;;;;;;8.06;38.89;98894.47;5023839;28;20272;-66
2022/03/06 11:16:30;;;;;;;15.10;7.18;;;;;;;8.18;39.35;98893.53;5023986;28;20028;-66
2022/03/06 11:18:56;;;;;;;16.90;7.05;;;;;;;8.40;38.82;98890.81;5024011;28;20032;-66
2022/03/06 11:21:24;;;;;;;20.10;7.50;;;;;;;8.35;38.39;98883.84;5023967;28;20025;-66